Time;durP1;ratioP1;P1;durP2;ratioP2;P2;SDS_P1;SDS_P2;PMS_P1;PMS_P2;Temp;Humidity;BMP_temperature;BMP_pressure;BME280_temperature;BME280_humidity;BME280_pressure;Samples;Min_cycle;Max_cycle;Signal;HPM_P1;HPM_P2
2021/05/29 00:01:47;;;;;;;8.45;6.68;;;;;;;;;;4417305;32;20172;-68
2021/05/29 00:04:13;;;;;;;9.93;6.70;;;;;;;;;;4417352;32;20180;-68
2021/05/29 00:06:38;;;;;;;8.57;6.03;;;;;;;;;;4403655;32;20280;-69
2021/05/29 00:09:03;;;;;;;10.37;6.77;;;;;;;;;;4418564;32;20188;-69
2021/05/29 00:11:28;;;;;;;8.68;6.72;;;;;;;;;;4417931;32;20538;-68
2021/05/29 00:13:53;;;;;;;11.18;6.47;;;;;;;;;;4404366;32;20330;-68
2021/05/29 00:16:19;;;;;;;10.15;6.55;;;;;;;;;;4420025;32;20222;-68
2021/05/29 00:18:44;;;;;;;8.52;6.20;;;;;;;;;;4404203;32;20205;-68
2021/05/29 00:21:09;;;;;;;10.50;6.45;;;;;;;;;;4416883;32;20175;-68
2021/05/29 00:23:35;;;;;;;8.73;5.85;;;;;;;;;;4418666;32;20181;-68
2021/05/29 00:26:00;;;;;;;10.30;6.60;;;;;;;;;;4417613;32;20172;-68
2021/05/29 00:28:25;;;;;;;8.05;6.57;;;;;;;;;;4417073;32;20195;-68
2021/05/29 00:30:50;;;;;;;10.25;6.20;;;;;;;;;;4418538;32;20527;-68
2021/05/29 00:33:15;;;;;;;11.25;6.50;;;;;;;;;;4421940;32;20161;-68
2021/05/29 00:35:41;;;;;;;9.85;6.97;;;;;;;;;;4421968;32;20279;-67
2021/05/29 00:38:06;;;;;;;10.07;6.80;;;;;;;;;;4420231;32;20289;-68
2021/05/29 00:40:32;;;;;;;9.25;6.55;;;;;;;;;;4421239;32;20200;-68
2021/05/29 00:42:57;;;;;;;7.93;6.65;;;;;;;;;;4421313;32;20134;-68
2021/05/29 00:45:22;;;;;;;9.23;6.50;;;;;;;;;;4421226;32;20515;-68
2021/05/29 00:47:48;;;;;;;10.02;6.32;;;;;;;;;;4406732;32;20180;-68
2021/05/29 00:50:13;;;;;;;8.93;6.75;;;;;;;;;;4422165;32;20129;-68
2021/05/29 00:52:39;;;;;;;10.43;6.55;;;;;;;;;;4422077;32;20145;-68
2021/05/29 00:55:05;;;;;;;8.55;6.28;;;;;;;;;;4406128;32;20304;-67
2021/05/29 00:57:31;;;;;;;8.18;6.32;;;;;;;;;;4421577;32;20161;-68
2021/05/29 00:59:56;;;;;;;8.45;6.18;;;;;;;;;;4419500;32;20474;-68
2021/05/29 01:02:21;;;;;;;9.85;6.35;;;;;;;;;;4421463;32;20535;-68
2021/05/29 01:04:46;;;;;;;9.88;6.12;;;;;;;;;;4406281;32;20294;-68
2021/05/29 01:07:12;;;;;;;7.97;6.20;;;;;;;;;;4421496;32;20542;-67
2021/05/29 01:09:38;;;;;;;10.20;5.72;;;;;;;;;;4421256;32;20462;-67
2021/05/29 01:12:04;;;;;;;9.18;6.47;;;;;;;;;;4428169;32;20150;-68
2021/05/29 01:14:31;;;;;;;8.25;5.90;;;;;;;;;;4435157;32;20208;-67
2021/05/29 01:16:56;;;;;;;10.85;6.15;;;;;;;;;;4436734;32;20168;-68
2021/05/29 01:19:22;;;;;;;12.48;6.87;;;;;;;;;;4436061;32;20504;-68
2021/05/29 01:21:47;;;;;;;9.20;5.62;;;;;;;;;;4436368;32;20428;-67
2021/05/29 01:24:13;;;;;;;9.98;6.30;;;;;;;;;;4436369;32;20519;-67
2021/05/29 01:26:38;;;;;;;8.20;5.75;;;;;;;;;;4435351;32;20447;-67
2021/05/29 01:29:03;;;;;;;8.45;5.95;;;;;;;;;;4436399;32;20166;-68
2021/05/29 01:31:31;;;;;;;11.32;7.05;;;;;;;;;;4429978;32;20142;-68
2021/05/29 01:33:57;;;;;;;10.88;6.90;;;;;;;;;;4419622;32;20142;-68
2021/05/29 01:36:23;;;;;;;9.82;6.65;;;;;;;;;;4421118;32;20134;-68
2021/05/29 01:38:48;;;;;;;9.82;6.57;;;;;;;;;;4419727;32;20175;-68
2021/05/29 01:41:14;;;;;;;10.20;6.18;;;;;;;;;;4419440;32;20160;-68
2021/05/29 01:43:41;;;;;;;8.67;6.17;;;;;;;;;;4419998;32;20158;-68
2021/05/29 01:46:07;;;;;;;8.80;6.03;;;;;;;;;;4420112;32;20317;-68
2021/05/29 01:48:44;;;;;;;7.87;6.00;;;;;;;;;;4419387;32;20129;-68
2021/05/29 01:51:12;;;;;;;10.38;6.00;;;;;;;;;;4407332;32;20458;-68
2021/05/29 01:53:38;;;;;;;8.57;5.90;;;;;;;;;;4435432;32;20137;-67
2021/05/29 01:56:04;;;;;;;11.30;5.80;;;;;;;;;;4435367;32;20486;-67
2021/05/29 01:58:29;;;;;;;9.05;5.87;;;;;;;;;;4435533;32;20141;-67
2021/05/29 02:00:54;;;;;;;8.88;5.57;;;;;;;;;;4436198;32;20550;-68
2021/05/29 02:03:20;;;;;;;11.70;5.70;;;;;;;;;;4421441;32;20180;-68
2021/05/29 02:05:45;;;;;;;8.00;5.70;;;;;;;;;;4434913;32;20154;-68
2021/05/29 02:08:11;;;;;;;8.48;5.20;;;;;;;;;;4436352;32;20149;-68
2021/05/29 02:10:38;;;;;;;7.57;5.75;;;;;;;;;;4435419;32;20137;-68
2021/05/29 02:13:04;;;;;;;8.57;5.95;;;;;;;;;;4433829;32;20168;-67
2021/05/29 02:15:31;;;;;;;7.80;5.50;;;;;;;;;;4433414;32;20218;-67
2021/05/29 02:17:58;;;;;;;10.15;5.55;;;;;;;;;;4436198;32;20443;-69
2021/05/29 02:20:41;;;;;;;7.32;5.65;;;;;;;;;;4420461;32;20308;-68
2021/05/29 02:23:07;;;;;;;8.60;5.57;;;;;;;;;;4434776;32;20190;-68
2021/05/29 02:25:32;;;;;;;8.23;5.90;;;;;;;;;;4436532;32;20227;-69
2021/05/29 02:27:57;;;;;;;8.52;5.28;;;;;;;;;;4436423;32;20165;-68
2021/05/29 02:30:23;;;;;;;8.50;5.57;;;;;;;;;;4434291;32;20133;-68
2021/05/29 02:32:49;;;;;;;9.20;5.60;;;;;;;;;;4434521;32;20183;-68
2021/05/29 02:35:14;;;;;;;10.98;5.97;;;;;;;;;;4420334;32;20195;-68
2021/05/29 02:37:39;;;;;;;8.02;6.25;;;;;;;;;;4435636;32;20196;-68
2021/05/29 02:40:05;;;;;;;8.05;6.37;;;;;;;;;;4435438;32;20199;-67
2021/05/29 02:42:30;;;;;;;7.67;5.50;;;;;;;;;;4423087;32;20452;-68
2021/05/29 02:44:55;;;;;;;7.40;5.45;;;;;;;;;;4420258;32;20160;-67
2021/05/29 02:47:20;;;;;;;8.45;5.82;;;;;;;;;;4420245;32;20159;-68
2021/05/29 02:49:45;;;;;;;7.80;5.50;;;;;;;;;;4420623;32;20229;-68
2021/05/29 02:52:11;;;;;;;7.57;5.40;;;;;;;;;;4433543;32;20231;-67
2021/05/29 02:54:41;;;;;;;8.65;5.85;;;;;;;;;;4434803;32;20146;-68
2021/05/29 02:57:07;;;;;;;9.03;5.87;;;;;;;;;;4419991;32;20164;-68
2021/05/29 02:59:32;;;;;;;8.60;5.97;;;;;;;;;;4434289;32;20236;-68
2021/05/29 03:01:57;;;;;;;8.25;5.75;;;;;;;;;;4435322;32;20261;-68
2021/05/29 03:04:22;;;;;;;7.47;5.30;;;;;;;;;;4434545;32;20252;-67
2021/05/29 03:06:48;;;;;;;9.63;6.25;;;;;;;;;;4435108;32;20347;-67
2021/05/29 03:09:13;;;;;;;9.18;5.40;;;;;;;;;;4435296;32;20676;-67
2021/05/29 03:11:42;;;;;;;7.80;5.77;;;;;;;;;;4420152;32;20164;-67
2021/05/29 03:14:07;;;;;;;8.40;5.68;;;;;;;;;;4434770;32;20366;-68
2021/05/29 03:16:32;;;;;;;7.00;5.23;;;;;;;;;;4435212;32;20138;-67
2021/05/29 03:18:57;;;;;;;8.93;5.50;;;;;;;;;;4432857;32;20149;-67
2021/05/29 03:21:22;;;;;;;8.07;5.73;;;;;;;;;;4432448;32;20213;-68
2021/05/29 03:23:48;;;;;;;8.13;5.93;;;;;;;;;;4434483;32;20196;-68
2021/05/29 03:26:13;;;;;;;8.93;6.05;;;;;;;;;;4434443;32;20320;-68
2021/05/29 03:28:38;;;;;;;9.53;5.47;;;;;;;;;;4433353;32;20229;-68
2021/05/29 03:31:03;;;;;;;7.95;5.32;;;;;;;;;;4435263;32;20134;-67
2021/05/29 03:33:29;;;;;;;7.43;5.40;;;;;;;;;;4433189;32;20141;-68
2021/05/29 03:35:54;;;;;;;9.23;5.10;;;;;;;;;;4435339;32;20344;-69
2021/05/29 03:38:19;;;;;;;8.13;4.90;;;;;;;;;;4419525;32;20196;-69
2021/05/29 03:40:45;;;;;;;8.07;5.30;;;;;;;;;;4435610;32;20191;-68
2021/05/29 03:43:10;;;;;;;8.30;5.30;;;;;;;;;;4434888;32;20175;-69
2021/05/29 03:45:35;;;;;;;7.25;5.10;;;;;;;;;;4434732;32;20137;-68
2021/05/29 03:48:00;;;;;;;8.38;5.18;;;;;;;;;;4420623;32;20684;-67
2021/05/29 03:50:25;;;;;;;7.95;5.35;;;;;;;;;;4434152;32;20152;-67
2021/05/29 03:52:51;;;;;;;9.20;5.27;;;;;;;;;;4433458;32;20134;-68
2021/05/29 03:55:18;;;;;;;6.60;5.00;;;;;;;;;;4434639;32;20172;-67
2021/05/29 03:57:44;;;;;;;7.53;5.40;;;;;;;;;;4434705;32;20145;-68
2021/05/29 04:00:10;;;;;;;8.33;5.70;;;;;;;;;;4434355;32;20539;-68
2021/05/29 04:02:35;;;;;;;9.50;6.10;;;;;;;;;;4435018;32;20221;-68
2021/05/29 04:05:00;;;;;;;10.80;6.77;;;;;;;;;;4433815;32;20158;-68
2021/05/29 04:07:25;;;;;;;8.07;5.70;;;;;;;;;;4433380;32;20168;-68
2021/05/29 04:09:51;;;;;;;9.00;5.90;;;;;;;;;;4433293;32;20152;-68
2021/05/29 04:12:16;;;;;;;8.47;5.37;;;;;;;;;;4433169;32;20148;-69
2021/05/29 04:14:41;;;;;;;7.53;5.22;;;;;;;;;;4420527;32;20169;-68
2021/05/29 04:17:06;;;;;;;9.03;5.37;;;;;;;;;;4419887;32;20161;-68
2021/05/29 04:19:32;;;;;;;6.53;4.83;;;;;;;;;;4434193;32;20156;-68
2021/05/29 04:21:57;;;;;;;8.85;5.10;;;;;;;;;;4433329;32;20427;-68
2021/05/29 04:24:22;;;;;;;8.95;4.85;;;;;;;;;;4434095;32;20344;-68
2021/05/29 04:26:47;;;;;;;6.32;4.85;;;;;;;;;;4434274;32;20218;-68
2021/05/29 04:29:12;;;;;;;5.07;4.40;;;;;;;;;;4433219;32;20170;-67
2021/05/29 04:31:37;;;;;;;7.82;4.60;;;;;;;;;;4433067;32;20241;-68
2021/05/29 04:34:03;;;;;;;5.47;4.10;;;;;;;;;;4432685;32;20221;-68
2021/05/29 04:36:28;;;;;;;5.65;4.20;;;;;;;;;;4434233;32;20129;-68
2021/05/29 04:38:53;;;;;;;5.87;4.30;;;;;;;;;;4432993;32;20175;-68
2021/05/29 04:41:20;;;;;;;6.35;4.43;;;;;;;;;;4431599;32;20520;-68
2021/05/29 04:43:46;;;;;;;9.52;4.00;;;;;;;;;;4431627;32;20331;-67
2021/05/29 04:46:11;;;;;;;6.12;4.37;;;;;;;;;;4433643;32;20137;-68
2021/05/29 04:48:36;;;;;;;7.00;4.18;;;;;;;;;;4432187;32;20538;-68
2021/05/29 04:51:15;;;;;;;6.80;4.30;;;;;;;;;;4433627;32;20130;-68
2021/05/29 04:53:41;;;;;;;8.63;4.07;;;;;;;;;;4433851;32;20170;-68
2021/05/29 04:56:06;;;;;;;5.85;4.37;;;;;;;;;;4433028;32;20168;-68
2021/05/29 04:58:31;;;;;;;7.70;4.12;;;;;;;;;;4432933;32;20164;-68
2021/05/29 05:00:57;;;;;;;5.40;3.87;;;;;;;;;;4432284;32;20259;-67
2021/05/29 05:03:22;;;;;;;5.97;3.53;;;;;;;;;;4432737;32;20141;-67
2021/05/29 05:05:47;;;;;;;6.70;3.80;;;;;;;;;;4431247;32;20175;-67
2021/05/29 05:08:12;;;;;;;7.57;4.60;;;;;;;;;;4431377;32;20129;-68
2021/05/29 05:10:38;;;;;;;6.10;4.10;;;;;;;;;;4432297;32;20562;-68
2021/05/29 05:13:03;;;;;;;6.05;3.95;;;;;;;;;;4418497;32;20238;-68
2021/05/29 05:15:28;;;;;;;6.37;4.00;;;;;;;;;;4433236;32;20507;-68
2021/05/29 05:17:53;;;;;;;7.37;4.18;;;;;;;;;;4434669;32;20129;-68
2021/05/29 05:20:19;;;;;;;6.70;3.90;;;;;;;;;;4435565;32;20167;-68
2021/05/29 05:22:44;;;;;;;6.82;4.30;;;;;;;;;;4436318;32;20133;-68
2021/05/29 05:25:09;;;;;;;7.05;5.57;;;;;;;;;;4435908;32;20212;-68
2021/05/29 05:27:35;;;;;;;6.70;5.03;;;;;;;;;;4436350;32;20130;-68
2021/05/29 05:30:00;;;;;;;7.03;5.00;;;;;;;;;;4422253;32;20192;-67
2021/05/29 05:32:26;;;;;;;8.27;5.12;;;;;;;;;;4436223;32;20134;-68
2021/05/29 05:34:51;;;;;;;10.20;5.55;;;;;;;;;;4423252;32;20624;-68
2021/05/29 05:37:16;;;;;;;8.93;4.60;;;;;;;;;;4436676;32;20479;-66
2021/05/29 05:39:41;;;;;;;6.87;4.80;;;;;;;;;;4436036;32;20165;-67
2021/05/29 05:42:07;;;;;;;8.93;5.28;;;;;;;;;;4435121;32;20133;-66
2021/05/29 05:44:33;;;;;;;6.80;4.47;;;;;;;;;;4434233;32;20249;-66
2021/05/29 05:46:58;;;;;;;8.25;5.10;;;;;;;;;;4420348;32;20157;-66
2021/05/29 05:49:23;;;;;;;5.65;4.25;;;;;;;;;;4434886;32;20558;-66
2021/05/29 05:51:48;;;;;;;7.57;5.22;;;;;;;;;;4433116;32;20134;-66
2021/05/29 05:54:13;;;;;;;7.15;5.10;;;;;;;;;;4422831;32;20222;-66
2021/05/29 05:56:39;;;;;;;6.77;4.90;;;;;;;;;;4419913;32;20260;-66
2021/05/29 05:59:04;;;;;;;5.40;4.37;;;;;;;;;;4428635;32;20302;-67
2021/05/29 06:01:29;;;;;;;8.18;4.80;;;;;;;;;;4433787;32;20256;-66
2021/05/29 06:03:55;;;;;;;14.95;4.60;;;;;;;;;;4419204;32;20232;-66
2021/05/29 06:06:20;;;;;;;6.05;4.50;;;;;;;;;;4435098;32;20571;-66
2021/05/29 06:08:45;;;;;;;5.45;4.10;;;;;;;;;;4423812;32;20156;-66
2021/05/29 06:11:11;;;;;;;6.20;4.28;;;;;;;;;;4405737;32;20165;-66
2021/05/29 06:19:27;;;;;;;10.10;5.50;;;;;;;;;;4420709;32;20226;-66
2021/05/29 06:21:34;;;;;;;5.75;4.28;;;;;;;;;;4420053;32;20192;-66
2021/05/29 06:23:59;;;;;;;6.87;4.78;;;;;;;;;;4433737;32;20196;-66
2021/05/29 06:26:24;;;;;;;8.02;5.05;;;;;;;;;;4420970;32;20181;-66
2021/05/29 06:28:49;;;;;;;6.50;4.37;;;;;;;;;;4418402;32;20230;-66
2021/05/29 06:31:14;;;;;;;6.97;4.33;;;;;;;;;;4418990;32;20589;-66
2021/05/29 06:33:39;;;;;;;6.93;5.10;;;;;;;;;;4417696;32;20256;-65
2021/05/29 06:36:05;;;;;;;7.40;4.97;;;;;;;;;;4417578;32;20252;-66
2021/05/29 06:38:30;;;;;;;7.43;4.20;;;;;;;;;;4405024;32;20311;-67
2021/05/29 06:40:55;;;;;;;6.15;4.50;;;;;;;;;;4419394;32;20254;-65
2021/05/29 06:43:20;;;;;;;8.13;5.03;;;;;;;;;;4418490;32;20226;-66
2021/05/29 06:45:46;;;;;;;8.88;5.45;;;;;;;;;;4417726;32;20142;-66
2021/05/29 06:48:13;;;;;;;7.72;5.87;;;;;;;;;;4419896;32;20157;-66
2021/05/29 06:50:38;;;;;;;7.47;5.15;;;;;;;;;;4419356;32;20137;-66
2021/05/29 06:53:08;;;;;;;7.07;4.62;;;;;;;;;;4419236;32;20627;-66
2021/05/29 06:58:42;;;;;;;6.45;4.82;;;;;;;;;;4433804;32;20203;-66
2021/05/29 07:01:07;;;;;;;8.90;4.85;;;;;;;;;;4433938;32;20551;-67
2021/05/29 07:03:32;;;;;;;8.95;4.70;;;;;;;;;;4434901;32;20152;-67
2021/05/29 07:05:57;;;;;;;6.95;4.90;;;;;;;;;;4434394;32;20156;-65
2021/05/29 07:08:23;;;;;;;7.50;4.93;;;;;;;;;;4434458;32;20290;-66
2021/05/29 07:10:48;;;;;;;5.62;4.25;;;;;;;;;;4434205;32;20416;-66
2021/05/29 07:13:13;;;;;;;7.93;4.82;;;;;;;;;;4435185;32;20141;-66
2021/05/29 07:15:39;;;;;;;7.00;5.03;;;;;;;;;;4431902;32;20168;-65
2021/05/29 07:18:08;;;;;;;10.18;5.78;;;;;;;;;;4419772;32;20237;-66
2021/05/29 07:20:34;;;;;;;9.13;5.55;;;;;;;;;;4404920;32;20180;-66
2021/05/29 07:22:59;;;;;;;10.32;6.40;;;;;;;;;;4407040;32;20562;-66
2021/05/29 07:25:25;;;;;;;10.98;6.10;;;;;;;;;;4433910;32;20161;-66
2021/05/29 07:27:50;;;;;;;8.30;5.95;;;;;;;;;;4433838;32;20130;-66
2021/05/29 07:30:15;;;;;;;10.63;7.00;;;;;;;;;;4418491;32;20292;-65
2021/05/29 07:32:40;;;;;;;10.95;6.22;;;;;;;;;;4414624;32;20260;-66
2021/05/29 07:35:06;;;;;;;11.77;6.53;;;;;;;;;;4416593;32;20188;-65
2021/05/29 07:37:31;;;;;;;8.60;6.40;;;;;;;;;;4404658;32;20287;-65
2021/05/29 07:39:56;;;;;;;9.85;6.95;;;;;;;;;;4416146;32;20153;-66
2021/05/29 07:42:21;;;;;;;11.18;6.65;;;;;;;;;;4418047;32;20161;-66
2021/05/29 07:44:47;;;;;;;11.73;7.10;;;;;;;;;;4417491;32;20233;-66
2021/05/29 07:47:13;;;;;;;11.68;7.80;;;;;;;;;;4416978;32;20489;-66
2021/05/29 07:49:38;;;;;;;9.88;6.90;;;;;;;;;;4416781;32;20130;-66
2021/05/29 07:52:03;;;;;;;7.87;6.50;;;;;;;;;;4418352;32;20199;-65
2021/05/29 07:54:31;;;;;;;8.93;6.85;;;;;;;;;;4418441;32;20210;-65
2021/05/29 07:56:56;;;;;;;8.30;6.15;;;;;;;;;;4416613;32;20237;-67
2021/05/29 07:59:21;;;;;;;10.40;7.00;;;;;;;;;;4417058;32;20511;-66
2021/05/29 08:01:46;;;;;;;11.90;7.47;;;;;;;;;;4418382;32;20225;-66
2021/05/29 08:04:13;;;;;;;10.57;6.47;;;;;;;;;;4417295;32;20165;-66
2021/05/29 08:06:39;;;;;;;13.52;7.55;;;;;;;;;;4433528;32;20294;-66
2021/05/29 08:09:06;;;;;;;10.20;6.32;;;;;;;;;;4432140;32;20442;-66
2021/05/29 08:11:31;;;;;;;9.27;6.18;;;;;;;;;;4423052;32;20237;-66
2021/05/29 08:13:57;;;;;;;9.90;7.47;;;;;;;;;;4403876;32;20485;-66
2021/05/29 08:16:23;;;;;;;8.60;6.10;;;;;;;;;;4418773;32;20137;-65
2021/05/29 08:18:49;;;;;;;7.45;5.45;;;;;;;;;;4417833;32;20164;-66
2021/05/29 08:21:14;;;;;;;9.98;6.80;;;;;;;;;;4415949;32;20188;-66
2021/05/29 08:23:39;;;;;;;10.98;6.80;;;;;;;;;;4418848;32;20486;-66
2021/05/29 08:26:05;;;;;;;11.75;6.62;;;;;;;;;;4418360;32;20164;-67
2021/05/29 08:28:30;;;;;;;10.75;6.65;;;;;;;;;;4419156;32;20591;-67
2021/05/29 08:30:55;;;;;;;12.55;7.20;;;;;;;;;;4418805;32;20196;-66
2021/05/29 08:33:21;;;;;;;10.73;6.80;;;;;;;;;;4428452;32;20153;-66
2021/05/29 08:35:46;;;;;;;10.43;5.85;;;;;;;;;;4434800;32;20144;-67
2021/05/29 08:38:11;;;;;;;10.48;6.62;;;;;;;;;;4420337;32;20237;-67
2021/05/29 08:40:36;;;;;;;10.70;6.40;;;;;;;;;;4432892;32;20133;-66
2021/05/29 08:43:03;;;;;;;9.60;6.95;;;;;;;;;;4434876;32;20305;-66
2021/05/29 08:45:28;;;;;;;8.10;5.45;;;;;;;;;;4434281;32;20137;-67
2021/05/29 08:47:54;;;;;;;10.77;5.93;;;;;;;;;;4434844;32;20190;-67
2021/05/29 08:50:19;;;;;;;11.00;6.47;;;;;;;;;;4434423;32;20493;-66
2021/05/29 08:52:44;;;;;;;8.48;5.12;;;;;;;;;;4434657;32;20191;-67
2021/05/29 08:55:14;;;;;;;7.90;4.97;;;;;;;;;;4437396;32;20145;-67
2021/05/29 08:57:39;;;;;;;9.10;5.95;;;;;;;;;;4422952;32;20456;-66
2021/05/29 09:00:06;;;;;;;8.50;6.57;;;;;;;;;;4437050;32;20168;-66
2021/05/29 09:02:31;;;;;;;6.37;4.60;;;;;;;;;;4432082;32;20161;-66
2021/05/29 09:05:05;;;;;;;7.85;5.47;;;;;;;;;;4419004;32;20272;-66
2021/05/29 09:07:31;;;;;;;6.65;4.47;;;;;;;;;;4418581;32;20185;-67
2021/05/29 09:10:16;;;;;;;8.70;5.70;;;;;;;;;;4421101;32;20287;-66
2021/05/29 09:13:00;;;;;;;10.82;7.00;;;;;;;;;;4419375;32;20230;-66
2021/05/29 09:15:44;;;;;;;5.85;4.47;;;;;;;;;;4419420;32;20141;-66
2021/05/29 09:18:22;;;;;;;9.73;5.55;;;;;;;;;;4419573;32;20545;-65
2021/05/29 09:20:47;;;;;;;8.35;5.43;;;;;;;;;;4420072;32;20154;-67
2021/05/29 09:23:12;;;;;;;7.60;4.57;;;;;;;;;;4413482;32;20551;-65
2021/05/29 09:25:49;;;;;;;8.02;5.10;;;;;;;;;;4426134;32;20228;-66
2021/05/29 09:28:20;;;;;;;9.00;4.55;;;;;;;;;;4419938;32;20233;-66
2021/05/29 09:30:51;;;;;;;10.15;6.25;;;;;;;;;;4434242;32;20248;-65
2021/05/29 09:33:42;;;;;;;10.20;5.47;;;;;;;;;;4435420;32;20164;-67
2021/05/29 09:36:10;;;;;;;8.70;6.10;;;;;;;;;;4430238;32;20165;-65
2021/05/29 09:38:37;;;;;;;8.60;4.87;;;;;;;;;;4434614;32;20173;-66
2021/05/29 09:41:02;;;;;;;9.60;5.28;;;;;;;;;;4436309;32;20194;-67
2021/05/29 09:43:27;;;;;;;6.72;4.62;;;;;;;;;;4407110;32;20192;-66
2021/05/29 09:46:00;;;;;;;9.55;5.50;;;;;;;;;;4419786;32;20184;-66
2021/05/29 09:48:25;;;;;;;11.05;6.80;;;;;;;;;;4418395;32;20154;-65
2021/05/29 09:51:10;;;;;;;7.78;5.10;;;;;;;;;;4419489;32;20524;-65
2021/05/29 09:53:43;;;;;;;8.65;5.00;;;;;;;;;;4419261;32;20323;-66
2021/05/29 09:56:31;;;;;;;6.05;4.55;;;;;;;;;;4404076;32;20169;-66
2021/05/29 09:59:01;;;;;;;9.43;6.60;;;;;;;;;;4420305;32;20330;-67
2021/05/29 10:01:57;;;;;;;7.65;5.47;;;;;;;;;;4418542;32;20173;-67
2021/05/29 10:04:40;;;;;;;7.50;5.45;;;;;;;;;;4400944;32;20309;-65
2021/05/29 10:07:10;;;;;;;7.20;5.03;;;;;;;;;;4418448;32;20486;-66
2021/05/29 10:09:35;;;;;;;8.18;5.53;;;;;;;;;;4419558;32;20200;-67
2021/05/29 10:12:02;;;;;;;7.75;5.07;;;;;;;;;;4419192;32;20231;-66
2021/05/29 10:14:30;;;;;;;8.30;5.15;;;;;;;;;;4417904;32;20226;-67
2021/05/29 10:16:56;;;;;;;6.22;5.00;;;;;;;;;;4419565;32;20570;-66
2021/05/29 10:19:21;;;;;;;7.95;5.40;;;;;;;;;;4418639;32;20134;-67
2021/05/29 10:21:51;;;;;;;8.63;5.85;;;;;;;;;;4419512;32;20508;-66
2021/05/29 10:24:16;;;;;;;8.18;6.07;;;;;;;;;;4420093;32;20383;-66
2021/05/29 10:26:42;;;;;;;8.13;5.37;;;;;;;;;;4426056;32;20535;-66
2021/05/29 10:29:08;;;;;;;9.35;5.87;;;;;;;;;;4433687;32;20134;-67
2021/05/29 10:31:35;;;;;;;10.77;6.68;;;;;;;;;;4435634;32;20491;-66
2021/05/29 10:34:01;;;;;;;10.52;7.00;;;;;;;;;;4433837;32;20206;-66
2021/05/29 10:36:43;;;;;;;9.57;6.60;;;;;;;;;;4434573;32;20175;-67
2021/05/29 10:39:08;;;;;;;11.90;7.62;;;;;;;;;;4434546;32;20145;-67
2021/05/29 10:41:53;;;;;;;10.45;6.62;;;;;;;;;;4436321;32;20130;-67
2021/05/29 10:44:28;;;;;;;10.20;6.30;;;;;;;;;;4421600;32;20300;-66
2021/05/29 10:47:05;;;;;;;9.88;6.37;;;;;;;;;;4418743;32;20165;-67
2021/05/29 10:49:49;;;;;;;9.18;6.30;;;;;;;;;;4433401;32;20599;-67
2021/05/29 10:52:30;;;;;;;8.20;5.82;;;;;;;;;;4418233;32;20147;-67
2021/05/29 10:55:14;;;;;;;8.13;6.05;;;;;;;;;;4417319;32;20194;-65
2021/05/29 10:57:59;;;;;;;7.97;5.97;;;;;;;;;;4419361;32;20133;-67
2021/05/29 11:00:36;;;;;;;7.30;6.07;;;;;;;;;;4405419;32;20240;-65
2021/05/29 11:03:21;;;;;;;8.40;5.85;;;;;;;;;;4418821;32;20585;-65
2021/05/29 11:05:46;;;;;;;7.80;5.70;;;;;;;;;;4403478;32;20573;-66
2021/05/29 11:08:30;;;;;;;8.27;5.35;;;;;;;;;;4417913;32;20134;-65
2021/05/29 11:10:55;;;;;;;6.45;4.87;;;;;;;;;;4419373;32;20169;-66
2021/05/29 11:13:47;;;;;;;7.07;5.23;;;;;;;;;;4428814;32;20147;-65
2021/05/29 11:16:12;;;;;;;8.60;6.57;;;;;;;;;;4435874;32;20308;-66
2021/05/29 11:18:57;;;;;;;8.40;5.78;;;;;;;;;;4434391;32;20133;-66
2021/05/29 11:21:22;;;;;;;8.50;6.18;;;;;;;;;;4432190;32;20543;-66
2021/05/29 11:23:47;;;;;;;8.73;5.40;;;;;;;;;;4412822;32;20176;-66
2021/05/29 11:26:12;;;;;;;8.40;5.50;;;;;;;;;;4451330;32;20349;-65
2021/05/29 11:28:39;;;;;;;5.57;4.97;;;;;;;;;;4450836;32;20235;-66
2021/05/29 11:31:07;;;;;;;8.32;5.55;;;;;;;;;;4435650;32;20267;-65
2021/05/29 11:33:32;;;;;;;6.35;4.82;;;;;;;;;;4435117;32;20158;-66
2021/05/29 11:35:57;;;;;;;8.40;4.70;;;;;;;;;;4450344;32;20163;-66
2021/05/29 11:38:37;;;;;;;7.50;5.43;;;;;;;;;;4449167;32;20235;-66
2021/05/29 11:41:11;;;;;;;7.75;5.43;;;;;;;;;;4450359;32;20458;-67
2021/05/29 11:43:39;;;;;;;8.02;6.15;;;;;;;;;;4423474;32;20373;-66
2021/05/29 11:46:08;;;;;;;8.35;5.53;;;;;;;;;;4434875;32;20568;-66
2021/05/29 11:48:42;;;;;;;6.20;4.82;;;;;;;;;;4421066;32;20209;-65
2021/05/29 11:51:14;;;;;;;8.10;5.65;;;;;;;;;;4433466;32;20464;-66
2021/05/29 11:53:40;;;;;;;8.85;5.50;;;;;;;;;;4435293;32;20168;-66
2021/05/29 11:56:06;;;;;;;7.53;6.35;;;;;;;;;;4434620;32;20207;-66
2021/05/29 11:58:42;;;;;;;8.20;6.05;;;;;;;;;;4433490;32;20187;-66
2021/05/29 12:01:07;;;;;;;7.72;5.85;;;;;;;;;;4434528;32;20175;-67
2021/05/29 12:03:39;;;;;;;11.05;6.15;;;;;;;;;;4432647;32;20481;-66
2021/05/29 12:06:04;;;;;;;8.40;5.72;;;;;;;;;;4433022;32;20563;-66
2021/05/29 12:08:29;;;;;;;9.63;6.40;;;;;;;;;;4417078;32;20161;-67
2021/05/29 12:10:55;;;;;;;9.35;6.62;;;;;;;;;;4433584;32;20574;-65
2021/05/29 12:13:21;;;;;;;6.80;5.50;;;;;;;;;;4420346;32;20168;-66
2021/05/29 12:15:52;;;;;;;8.57;6.30;;;;;;;;;;4417491;32;20137;-66
2021/05/29 12:18:17;;;;;;;7.62;5.90;;;;;;;;;;4405130;32;20207;-67
2021/05/29 12:20:52;;;;;;;7.50;6.45;;;;;;;;;;4402265;32;20162;-66
2021/05/29 12:23:17;;;;;;;8.13;6.28;;;;;;;;;;4416874;32;20137;-67
2021/05/29 12:25:43;;;;;;;8.77;6.77;;;;;;;;;;4417927;32;20420;-66
2021/05/29 12:28:08;;;;;;;7.70;5.12;;;;;;;;;;4418136;32;20221;-67
2021/05/29 12:30:33;;;;;;;6.10;5.33;;;;;;;;;;4417745;32;20256;-66
2021/05/29 12:32:58;;;;;;;6.83;5.80;;;;;;;;;;4416477;32;20512;-66
2021/05/29 12:35:26;;;;;;;6.53;5.05;;;;;;;;;;4418842;32;20264;-67
2021/05/29 12:37:51;;;;;;;9.07;6.53;;;;;;;;;;4417292;32;20186;-66
2021/05/29 12:40:17;;;;;;;6.68;5.70;;;;;;;;;;4404486;32;20237;-65
2021/05/29 12:42:43;;;;;;;6.50;5.90;;;;;;;;;;4418826;32;20592;-66
2021/05/29 12:45:15;;;;;;;6.55;5.90;;;;;;;;;;4418508;32;20627;-65
2021/05/29 12:47:50;;;;;;;8.63;6.07;;;;;;;;;;4417937;32;20530;-65
2021/05/29 12:50:15;;;;;;;9.27;6.45;;;;;;;;;;4418587;32;20585;-66
2021/05/29 12:52:41;;;;;;;7.75;6.10;;;;;;;;;;4404939;32;20162;-67
2021/05/29 12:55:06;;;;;;;7.80;6.55;;;;;;;;;;4417139;32;20207;-65
2021/05/29 12:57:38;;;;;;;9.20;6.65;;;;;;;;;;4422429;32;20156;-66
2021/05/29 13:00:19;;;;;;;7.87;6.43;;;;;;;;;;4432167;32;20220;-65
2021/05/29 13:08:31;;;;;;;8.48;6.30;;;;;;;;;;4387896;32;20161;-66
2021/05/29 13:11:00;;;;;;;8.63;6.87;;;;;;;;;;4416850;32;20231;-65
2021/05/29 13:13:25;;;;;;;9.48;6.85;;;;;;;;;;4403608;32;20158;-65
2021/05/29 13:16:00;;;;;;;8.57;6.95;;;;;;;;;;4418334;32;20138;-66
2021/05/29 13:18:25;;;;;;;7.95;7.10;;;;;;;;;;4417006;32;20125;-65
2021/05/29 13:21:00;;;;;;;8.50;7.22;;;;;;;;;;4418659;32;20154;-65
2021/05/29 13:23:25;;;;;;;9.60;7.40;;;;;;;;;;4417270;32;20223;-66
2021/05/29 13:25:50;;;;;;;8.93;6.75;;;;;;;;;;4416831;32;20503;-65
2021/05/29 13:28:16;;;;;;;10.20;7.40;;;;;;;;;;4417873;32;20177;-66
2021/05/29 13:30:42;;;;;;;11.48;6.97;;;;;;;;;;4417130;32;20271;-66
2021/05/29 13:33:09;;;;;;;9.73;8.02;;;;;;;;;;4417336;32;20134;-66
2021/05/29 13:35:35;;;;;;;7.15;6.22;;;;;;;;;;4416650;32;20146;-65
2021/05/29 13:38:00;;;;;;;10.13;7.03;;;;;;;;;;4417104;32;20157;-67
2021/05/29 13:40:26;;;;;;;7.72;6.85;;;;;;;;;;4430652;32;20185;-65
2021/05/29 13:42:51;;;;;;;7.68;6.72;;;;;;;;;;4413113;32;20288;-67
2021/05/29 13:45:19;;;;;;;9.20;7.78;;;;;;;;;;4420790;32;20134;-67
2021/05/29 13:47:45;;;;;;;10.70;8.60;;;;;;;;;;4419995;32;20187;-67
2021/05/29 13:50:10;;;;;;;11.38;9.10;;;;;;;;;;4418323;32;20142;-66
2021/05/29 13:52:35;;;;;;;11.43;7.97;;;;;;;;;;4413361;32;20196;-66
2021/05/29 13:55:01;;;;;;;8.23;7.35;;;;;;;;;;4434843;32;20137;-67
2021/05/29 13:57:26;;;;;;;10.43;7.10;;;;;;;;;;4420212;32;20335;-67
2021/05/29 13:59:51;;;;;;;8.68;7.47;;;;;;;;;;4435060;32;20233;-67
2021/05/29 14:02:16;;;;;;;11.12;7.55;;;;;;;;;;4435724;32;20232;-66
2021/05/29 14:04:41;;;;;;;8.43;6.93;;;;;;;;;;4434753;32;20195;-66
2021/05/29 14:07:07;;;;;;;14.82;8.82;;;;;;;;;;4434893;32;20161;-66
2021/05/29 14:09:32;;;;;;;9.13;7.40;;;;;;;;;;4434719;32;20159;-66
2021/05/29 14:11:57;;;;;;;11.32;8.00;;;;;;;;;;4421450;32;20587;-66
2021/05/29 14:14:22;;;;;;;9.13;6.90;;;;;;;;;;4434487;32;20570;-66
2021/05/29 14:16:47;;;;;;;10.70;7.55;;;;;;;;;;4435413;32;20126;-65
2021/05/29 14:19:13;;;;;;;10.80;6.70;;;;;;;;;;4433486;32;20134;-67
2021/05/29 14:21:39;;;;;;;8.90;6.93;;;;;;;;;;4435456;32;20638;-69
2021/05/29 14:24:10;;;;;;;11.05;7.43;;;;;;;;;;4436717;32;20133;-68
2021/05/29 14:26:35;;;;;;;9.65;8.10;;;;;;;;;;4423901;32;20141;-66
2021/05/29 14:29:05;;;;;;;11.82;7.80;;;;;;;;;;4420375;32;20138;-66
2021/05/29 14:31:31;;;;;;;11.12;7.60;;;;;;;;;;4421945;32;20138;-64
2021/05/29 14:33:56;;;;;;;11.93;7.65;;;;;;;;;;4417103;32;20242;-65
2021/05/29 14:36:23;;;;;;;9.30;8.02;;;;;;;;;;4435808;32;20200;-65
2021/05/29 14:38:48;;;;;;;11.15;7.82;;;;;;;;;;4436364;32;20129;-65
2021/05/29 14:41:14;;;;;;;11.65;9.10;;;;;;;;;;4435316;32;20183;-67
2021/05/29 14:43:39;;;;;;;8.50;7.43;;;;;;;;;;4433960;32;20531;-68
2021/05/29 14:46:05;;;;;;;11.32;8.30;;;;;;;;;;4433474;32;20163;-68
2021/05/29 14:48:30;;;;;;;12.07;8.35;;;;;;;;;;4420345;32;20468;-68
2021/05/29 14:53:39;;;;;;;12.40;8.02;;;;;;;;;;4419990;32;20335;-68
2021/05/29 14:56:04;;;;;;;12.40;8.18;;;;;;;;;;4404590;32;20165;-68
2021/05/29 14:58:29;;;;;;;10.70;7.50;;;;;;;;;;4405406;32;20602;-67